createdAt,value
2023-04-14T00:02:21.767Z,6.20
2023-04-14T00:04:54.714Z,8.73
2023-04-14T00:07:24.322Z,11.10
2023-04-14T00:09:53.750Z,9.02
2023-04-14T00:12:23.175Z,7.65
2023-04-14T00:14:52.640Z,6.78
2023-04-14T00:17:22.171Z,8.50
2023-04-14T00:19:51.686Z,6.03
2023-04-14T00:22:22.192Z,7.50
2023-04-14T00:24:51.649Z,6.47
2023-04-14T00:27:21.266Z,5.85
2023-04-14T00:29:50.734Z,4.95
2023-04-14T00:32:20.208Z,8.65
2023-04-14T00:34:49.607Z,7.68
2023-04-14T00:37:19.443Z,11.60
2023-04-14T00:39:48.825Z,9.40
2023-04-14T00:42:18.418Z,15.48
2023-04-14T00:44:51.562Z,10.07
2023-04-14T00:47:23.217Z,7.75
2023-04-14T00:49:53.113Z,8.25
2023-04-14T00:52:25.012Z,8.05
2023-04-14T00:54:54.434Z,11.20
2023-04-14T00:57:24.108Z,11.30
2023-04-14T00:59:53.617Z,7.93
2023-04-14T01:02:23.243Z,11.60
2023-04-14T01:04:54.675Z,7.03
2023-04-14T01:07:25.715Z,8.23
2023-04-14T01:09:55.917Z,9.15
2023-04-14T01:12:45.900Z,13.65
2023-04-14T01:15:21.199Z,10.32
2023-04-14T01:18:05.327Z,6.82
2023-04-14T01:20:44.189Z,9.75
2023-04-14T01:23:25.569Z,12.27
2023-04-14T01:26:14.193Z,9.15
2023-04-14T01:29:02.376Z,9.15
2023-04-14T01:31:34.333Z,9.85
2023-04-14T01:34:19.149Z,11.25
2023-04-14T01:37:00.996Z,8.63
2023-04-14T01:39:33.984Z,8.98
2023-04-14T01:42:03.395Z,14.50
2023-04-14T01:44:33.811Z,10.23
2023-04-14T01:47:07.266Z,5.82
2023-04-14T01:49:39.755Z,7.22
2023-04-14T01:52:11.383Z,7.45
2023-04-14T01:57:13.979Z,7.47
2023-04-14T01:59:44.252Z,6.53
2023-04-14T02:02:15.858Z,8.80
2023-04-14T02:04:46.014Z,12.20
2023-04-14T02:07:15.613Z,9.95
2023-04-14T02:09:46.723Z,12.10
2023-04-14T02:12:16.754Z,7.22
2023-04-14T02:14:46.985Z,10.45
2023-04-14T02:17:16.784Z,6.93
2023-04-14T02:19:47.822Z,6.72
2023-04-14T02:22:17.339Z,6.88
2023-04-14T02:24:46.797Z,6.97
2023-04-14T02:27:21.726Z,6.68
2023-04-14T02:29:55.326Z,13.38
2023-04-14T02:32:29.078Z,6.55
2023-04-14T02:35:04.659Z,8.77
2023-04-14T02:37:39.057Z,8.00
2023-04-14T02:40:15.773Z,6.28
2023-04-14T02:42:48.892Z,7.00
2023-04-14T02:45:22.501Z,7.50
2023-04-14T02:47:55.934Z,5.18
2023-04-14T02:50:26.999Z,8.07
2023-04-14T02:53:20.341Z,8.15
2023-04-14T02:55:50.898Z,5.65
2023-04-14T02:58:22.571Z,6.55
2023-04-14T03:00:53.059Z,8.15
2023-04-14T03:03:22.943Z,6.15
2023-04-14T03:05:52.818Z,5.75
2023-04-14T03:08:22.637Z,6.47
2023-04-14T03:10:54.608Z,6.20
2023-04-14T03:13:27.887Z,8.00
2023-04-14T03:15:57.899Z,6.25
2023-04-14T03:18:28.343Z,9.20
2023-04-14T03:21:00.915Z,6.57
2023-04-14T03:23:31.700Z,8.68
2023-04-14T03:26:04.594Z,7.97
2023-04-14T03:28:38.178Z,7.32
2023-04-14T03:31:10.917Z,8.35
2023-04-14T03:33:48.677Z,5.13
2023-04-14T03:36:19.533Z,6.55
2023-04-14T03:38:50.388Z,4.10
2023-04-14T03:41:22.534Z,5.53
2023-04-14T03:43:54.851Z,12.40
2023-04-14T03:46:24.848Z,6.60
2023-04-14T03:48:56.825Z,6.78
2023-04-14T03:51:28.714Z,6.90
2023-04-14T03:53:59.096Z,8.98
2023-04-14T03:56:29.638Z,10.05
2023-04-14T03:59:00.333Z,6.75
2023-04-14T04:01:33.143Z,8.15
2023-04-14T04:04:05.573Z,4.97
2023-04-14T04:09:08.053Z,4.13
2023-04-14T04:11:38.103Z,7.72
2023-04-14T04:14:08.556Z,6.90
2023-04-14T04:19:09.996Z,5.63
2023-04-14T04:21:43.243Z,4.72
2023-04-14T04:24:13.134Z,9.23
2023-04-14T04:26:43.429Z,7.55
2023-04-14T04:29:13.262Z,6.68
2023-04-14T04:31:43.058Z,5.05
2023-04-14T04:34:12.868Z,9.57
2023-04-14T04:36:43.221Z,10.40
2023-04-14T04:39:12.753Z,6.47
2023-04-14T04:41:45.983Z,12.45
2023-04-14T04:44:15.898Z,11.63
2023-04-14T04:46:48.930Z,10.02
2023-04-14T04:49:19.448Z,11.55
2023-04-14T04:51:49.545Z,6.97
2023-04-14T04:54:21.699Z,9.10
2023-04-14T04:56:51.176Z,7.38
2023-04-14T04:59:20.601Z,12.18
2023-04-14T05:01:50.195Z,13.32
2023-04-14T05:04:20.083Z,12.55
2023-04-14T05:06:49.539Z,6.93
2023-04-14T05:09:18.936Z,8.93
2023-04-14T05:11:48.332Z,6.68
2023-04-14T05:14:17.824Z,11.95
2023-04-14T05:16:47.333Z,12.05
2023-04-14T05:19:19.810Z,8.20
2023-04-14T05:21:49.527Z,17.17
2023-04-14T05:24:18.883Z,8.95
2023-04-14T05:27:11.523Z,7.55
2023-04-14T05:29:37.612Z,7.13
2023-04-14T05:32:06.985Z,11.25
2023-04-14T05:34:36.545Z,7.82
2023-04-14T05:37:06.408Z,7.18
2023-04-14T05:39:36.075Z,11.73
2023-04-14T05:42:05.794Z,7.75
2023-04-14T05:44:35.233Z,5.22
2023-04-14T05:47:04.883Z,6.22
2023-04-14T05:49:34.469Z,7.38
2023-04-14T05:52:03.923Z,8.45
2023-04-14T05:54:33.321Z,6.78
2023-04-14T05:57:02.850Z,7.65
2023-04-14T05:59:32.265Z,8.02
2023-04-14T06:02:04.955Z,8.50
2023-04-14T06:04:34.583Z,8.90
2023-04-14T06:07:04.256Z,7.88
2023-04-14T06:09:33.707Z,9.63
2023-04-14T06:12:03.125Z,6.95
2023-04-14T06:14:32.514Z,9.50
2023-04-14T06:17:01.918Z,10.80
2023-04-14T06:19:31.452Z,10.65
2023-04-14T06:22:00.978Z,9.63
2023-04-14T06:24:30.532Z,10.13
2023-04-14T06:26:59.906Z,11.27
2023-04-14T06:29:29.831Z,9.60
2023-04-14T06:32:00.734Z,7.55
2023-04-14T06:34:30.174Z,11.15
2023-04-14T06:36:59.549Z,11.10
2023-04-14T06:39:28.924Z,10.48
2023-04-14T06:41:58.589Z,9.35
2023-04-14T06:44:27.931Z,12.23
2023-04-14T06:46:57.322Z,8.07
2023-04-14T06:49:26.654Z,11.80
2023-04-14T06:51:56.022Z,11.18
2023-04-14T06:54:25.448Z,15.60
2023-04-14T06:56:54.824Z,11.95
2023-04-14T06:59:28.069Z,12.07
2023-04-14T07:01:58.961Z,7.57
2023-04-14T07:04:28.648Z,9.88
2023-04-14T07:07:01.763Z,11.93
2023-04-14T07:09:31.489Z,10.80
2023-04-14T07:12:01.601Z,10.13
2023-04-14T07:14:31.042Z,12.82
2023-04-14T07:17:00.476Z,8.23
2023-04-14T07:19:29.841Z,9.10
2023-04-14T07:21:59.325Z,13.88
2023-04-14T07:24:28.783Z,9.93
2023-04-14T07:26:58.243Z,10.88
2023-04-14T07:29:29.229Z,17.17
2023-04-14T07:31:58.604Z,12.27
2023-04-14T07:34:28.047Z,7.38
2023-04-14T07:36:57.465Z,11.00
2023-04-14T07:39:26.923Z,9.98
2023-04-14T07:41:57.915Z,14.60
2023-04-14T07:44:27.500Z,12.63
2023-04-14T07:46:57.026Z,10.85
2023-04-14T07:49:26.633Z,11.77
2023-04-14T07:51:57.060Z,8.13
2023-04-14T07:54:26.736Z,8.68
2023-04-14T07:56:56.206Z,11.57
2023-04-14T07:59:25.821Z,8.20
2023-04-14T08:01:55.405Z,9.50
2023-04-14T08:04:25.099Z,8.35
2023-04-14T08:06:54.546Z,8.65
2023-04-14T08:09:24.097Z,10.75
2023-04-14T08:11:53.662Z,10.07
2023-04-14T08:14:23.040Z,10.00
2023-04-14T08:16:52.741Z,8.40
2023-04-14T08:19:22.139Z,8.82
2023-04-14T08:21:52.298Z,5.78
2023-04-14T08:24:21.741Z,7.07
2023-04-14T08:26:51.251Z,9.70
2023-04-14T08:29:21.539Z,12.23
2023-04-14T08:31:51.174Z,6.57
2023-04-14T08:34:28.033Z,7.25
2023-04-14T08:37:00.403Z,5.88
2023-04-14T08:39:29.978Z,7.57
2023-04-14T08:41:59.712Z,8.00
2023-04-14T08:44:29.120Z,12.75
2023-04-14T08:46:58.704Z,8.07
2023-04-14T08:49:41.652Z,4.45
2023-04-14T08:52:14.797Z,7.40
2023-04-14T08:54:45.484Z,6.10
2023-04-14T08:57:15.221Z,10.25
2023-04-14T08:59:44.772Z,8.60
2023-04-14T09:02:14.617Z,4.20
2023-04-14T09:04:45.108Z,10.90
2023-04-14T09:07:15.650Z,7.40
2023-04-14T09:09:46.352Z,8.48
2023-04-14T09:12:19.403Z,3.05
2023-04-14T09:14:48.865Z,5.82
2023-04-14T09:17:18.371Z,8.30
2023-04-14T09:20:36.525Z,9.27
2023-04-14T09:22:37.607Z,9.52
2023-04-14T09:25:07.338Z,6.35
2023-04-14T09:27:36.745Z,6.80
2023-04-14T09:30:06.401Z,9.70
2023-04-14T09:32:36.268Z,6.68
2023-04-14T09:35:06.434Z,7.32
2023-04-14T09:37:49.278Z,4.18
2023-04-14T09:40:34.091Z,7.10
2023-04-14T09:43:04.161Z,5.75
2023-04-14T09:45:43.813Z,5.05
2023-04-14T09:48:15.460Z,6.90
2023-04-14T09:51:05.884Z,3.55
2023-04-14T09:53:40.454Z,6.15
2023-04-14T09:56:11.118Z,4.47
2023-04-14T09:58:44.597Z,3.22
2023-04-14T10:01:15.281Z,3.83
2023-04-14T10:03:45.941Z,7.78
2023-04-14T10:06:22.674Z,8.10
2023-04-14T10:08:53.192Z,10.68
2023-04-14T10:11:29.996Z,3.08
2023-04-14T10:14:00.622Z,9.85
2023-04-14T10:16:30.206Z,2.97
2023-04-14T10:19:00.748Z,5.80
2023-04-14T10:21:30.580Z,6.00
2023-04-14T10:24:00.118Z,6.65
2023-04-14T10:26:30.190Z,10.30
2023-04-14T10:29:02.557Z,6.13
2023-04-14T10:31:36.145Z,3.40
2023-04-14T10:34:14.692Z,2.70
2023-04-14T10:36:45.173Z,2.42
2023-04-14T10:39:15.808Z,4.57
2023-04-14T10:41:52.182Z,5.22
2023-04-14T10:44:34.921Z,5.13
2023-04-14T10:47:05.833Z,5.20
2023-04-14T10:49:37.055Z,3.47
2023-04-14T10:52:07.717Z,9.57
2023-04-14T10:55:08.163Z,5.75
2023-04-14T10:57:47.232Z,5.57
2023-04-14T11:00:16.675Z,4.65
2023-04-14T11:02:56.761Z,4.05
2023-04-14T11:05:26.464Z,5.10
2023-04-14T11:08:01.527Z,4.18
2023-04-14T11:10:34.406Z,3.40
2023-04-14T11:13:04.947Z,4.32
2023-04-14T11:15:50.994Z,2.45
2023-04-14T11:18:22.979Z,3.25
2023-04-14T11:20:54.361Z,5.47
2023-04-14T11:23:29.529Z,2.93
2023-04-14T11:25:59.468Z,5.15
2023-04-14T11:28:32.603Z,3.53
2023-04-14T11:31:03.060Z,8.32
2023-04-14T11:33:34.291Z,3.67
2023-04-14T11:36:04.766Z,2.45
2023-04-14T11:38:35.791Z,2.78
2023-04-14T11:41:05.467Z,2.33
2023-04-14T11:43:35.041Z,4.80
2023-04-14T11:46:08.698Z,4.68
2023-04-14T11:48:38.338Z,6.25
2023-04-14T11:51:07.899Z,2.60
2023-04-14T11:53:39.807Z,4.38
2023-04-14T11:56:13.307Z,3.05
2023-04-14T11:58:42.804Z,4.38
2023-04-14T12:01:15.096Z,4.68
2023-04-14T12:03:45.245Z,5.03
2023-04-14T12:06:14.769Z,4.57
2023-04-14T12:08:50.553Z,3.58
2023-04-14T12:11:20.281Z,2.78
2023-04-14T12:13:50.269Z,4.93
2023-04-14T12:16:20.052Z,6.88
2023-04-14T12:18:49.648Z,2.88
2023-04-14T12:21:20.530Z,2.40
2023-04-14T12:23:51.350Z,5.32
2023-04-14T12:26:21.542Z,1.45
2023-04-14T12:28:58.223Z,4.53
2023-04-14T12:31:32.221Z,6.90
2023-04-14T12:34:06.688Z,4.43
2023-04-14T12:36:49.592Z,1.38
2023-04-14T12:39:22.311Z,4.47
2023-04-14T12:41:51.860Z,5.82
2023-04-14T12:44:24.554Z,2.85
2023-04-14T12:46:55.465Z,3.00
2023-04-14T12:49:37.029Z,1.60
2023-04-14T12:52:08.525Z,3.63
2023-04-14T12:54:52.131Z,3.92
2023-04-14T12:57:22.580Z,2.78
2023-04-14T12:59:52.217Z,7.60
2023-04-14T13:02:21.780Z,3.65
2023-04-14T13:04:51.770Z,4.60
2023-04-14T13:07:21.724Z,5.45
2023-04-14T13:09:51.142Z,4.22
2023-04-14T13:12:20.882Z,3.38
2023-04-14T13:14:50.811Z,6.00
2023-04-14T13:17:20.280Z,3.83
2023-04-14T13:19:49.720Z,6.88
2023-04-14T13:22:19.133Z,7.57
2023-04-14T13:24:50.083Z,3.33
2023-04-14T13:27:20.057Z,3.83
2023-04-14T13:29:49.482Z,3.53
2023-04-14T13:32:18.899Z,8.38
2023-04-14T13:34:49.204Z,4.72
2023-04-14T13:37:19.572Z,4.15
2023-04-14T13:39:49.053Z,4.95
2023-04-14T13:42:18.735Z,2.13
2023-04-14T13:44:48.609Z,4.53
2023-04-14T13:47:19.158Z,7.70
2023-04-14T13:49:48.611Z,4.70
2023-04-14T13:52:18.007Z,2.72
2023-04-14T13:54:47.417Z,4.97
2023-04-14T13:57:16.863Z,3.28
2023-04-14T13:59:46.274Z,2.55
2023-04-14T14:02:15.754Z,3.78
2023-04-14T14:04:45.796Z,2.90
2023-04-14T14:07:15.250Z,2.25
2023-04-14T14:09:46.007Z,4.95
2023-04-14T14:12:17.213Z,3.83
2023-04-14T14:14:47.256Z,4.15
2023-04-14T14:17:17.072Z,3.30
2023-04-14T14:19:46.577Z,3.70
2023-04-14T14:22:16.364Z,3.53
2023-04-14T14:24:45.824Z,4.47
2023-04-14T14:27:15.246Z,6.20
2023-04-14T14:29:44.633Z,2.90
2023-04-14T14:32:15.729Z,2.70
2023-04-14T14:34:47.663Z,2.28
2023-04-14T14:37:18.429Z,2.38
2023-04-14T14:39:47.871Z,3.15
2023-04-14T14:42:17.339Z,5.82
2023-04-14T14:44:46.809Z,8.00
2023-04-14T14:47:19.206Z,3.83
2023-04-14T14:49:59.558Z,7.38
2023-04-14T14:52:33.914Z,4.03
2023-04-14T14:55:03.713Z,2.88
2023-04-14T14:57:33.373Z,6.05
2023-04-14T15:00:02.826Z,6.40
2023-04-14T15:02:32.553Z,5.38
2023-04-14T15:05:02.117Z,6.95
2023-04-14T15:07:31.692Z,6.13
2023-04-14T15:10:09.705Z,5.53
2023-04-14T15:12:39.096Z,8.77
2023-04-14T15:15:09.048Z,3.63
2023-04-14T15:17:38.494Z,1.30
2023-04-14T15:20:08.461Z,2.53
2023-04-14T15:22:37.885Z,4.28
2023-04-14T15:25:09.328Z,2.63
2023-04-14T15:27:38.871Z,3.13
2023-04-14T15:30:08.697Z,4.00
2023-04-14T15:32:38.181Z,4.18
2023-04-14T15:35:08.014Z,5.68
2023-04-14T15:37:37.426Z,3.80
2023-04-14T15:40:06.908Z,4.05
2023-04-14T15:42:36.287Z,2.88
2023-04-14T15:45:06.039Z,5.25
2023-04-14T15:47:35.634Z,6.82
2023-04-14T15:50:10.328Z,4.72
2023-04-14T15:52:41.353Z,3.20
2023-04-14T15:55:11.954Z,2.10
2023-04-14T15:57:41.382Z,3.78
2023-04-14T16:00:11.180Z,3.58
2023-04-14T16:02:46.000Z,3.60
2023-04-14T16:05:16.049Z,1.98
2023-04-14T16:07:46.488Z,2.42
2023-04-14T16:10:16.746Z,7.50
2023-04-14T16:12:47.249Z,3.85
2023-04-14T16:15:18.462Z,5.53
2023-04-14T16:17:48.249Z,2.80
2023-04-14T16:20:18.547Z,3.00
2023-04-14T16:22:49.473Z,5.95
2023-04-14T16:25:18.992Z,4.53
2023-04-14T16:27:48.349Z,3.20
2023-04-14T16:30:19.067Z,4.72
2023-04-14T16:32:48.507Z,6.63
2023-04-14T16:35:18.121Z,3.67
2023-04-14T16:37:47.774Z,2.05
2023-04-14T16:40:17.250Z,3.13
2023-04-14T16:42:47.381Z,2.03
2023-04-14T16:45:17.264Z,2.28
2023-04-14T16:47:47.650Z,1.92
2023-04-14T16:50:17.447Z,4.47
2023-04-14T16:52:46.847Z,3.15
2023-04-14T16:55:16.394Z,4.72
2023-04-14T16:57:45.887Z,5.32
2023-04-14T17:00:15.452Z,5.00
2023-04-14T17:02:45.048Z,5.22
2023-04-14T17:05:16.356Z,4.70
2023-04-14T17:07:46.978Z,5.30
2023-04-14T17:10:16.450Z,6.88
2023-04-14T17:12:47.200Z,4.35
2023-04-14T17:15:17.325Z,1.92
2023-04-14T17:17:46.961Z,5.38
2023-04-14T17:20:17.305Z,5.63
2023-04-14T17:22:47.115Z,2.15
2023-04-14T17:25:17.702Z,2.92
2023-04-14T17:27:47.116Z,2.80
2023-04-14T17:30:17.093Z,5.70
2023-04-14T17:32:47.109Z,5.43
2023-04-14T17:35:16.570Z,3.78
2023-04-14T17:37:45.993Z,4.15
2023-04-14T17:40:16.129Z,5.10
2023-04-14T17:42:45.787Z,5.10
2023-04-14T17:45:21.591Z,2.67
2023-04-14T17:47:51.321Z,4.72
2023-04-14T17:50:21.215Z,3.42
2023-04-14T17:52:51.325Z,1.77
2023-04-14T17:55:21.614Z,5.35
2023-04-14T17:57:51.734Z,4.38
2023-04-14T18:00:21.395Z,4.30
2023-04-14T18:02:50.962Z,2.85
2023-04-14T18:05:20.585Z,4.38
2023-04-14T18:07:51.259Z,3.38
2023-04-14T18:10:20.707Z,7.47
2023-04-14T18:12:50.885Z,2.65
2023-04-14T18:15:20.608Z,3.90
2023-04-14T18:17:50.077Z,10.00
2023-04-14T18:20:24.911Z,14.38
2023-04-14T18:22:54.904Z,6.85
2023-04-14T18:25:24.342Z,4.32
2023-04-14T18:32:55.532Z,4.88
2023-04-14T18:35:25.289Z,4.10
2023-04-14T18:37:54.662Z,3.88
2023-04-14T18:40:24.882Z,6.60
2023-04-14T18:42:57.488Z,3.03
2023-04-14T18:45:27.714Z,4.75
2023-04-14T18:47:57.178Z,2.63
2023-04-14T18:50:27.357Z,6.32
2023-04-14T18:52:57.308Z,8.68
2023-04-14T18:55:26.711Z,6.47
2023-04-14T18:58:12.464Z,4.82
2023-04-14T19:00:43.274Z,6.50
2023-04-14T19:03:12.843Z,4.45
2023-04-14T19:05:42.424Z,5.97
2023-04-14T19:08:11.794Z,8.40
2023-04-14T19:10:41.236Z,3.50
2023-04-14T19:13:11.353Z,2.83
2023-04-14T19:15:40.757Z,6.38
2023-04-14T19:18:10.558Z,9.10
2023-04-14T19:20:40.455Z,7.07
2023-04-14T19:23:10.108Z,8.27
2023-04-14T19:25:41.187Z,6.63
2023-04-14T19:28:16.613Z,7.15
2023-04-14T19:30:48.923Z,8.82
2023-04-14T19:33:18.752Z,5.63
2023-04-14T19:35:49.257Z,3.63
2023-04-14T19:38:19.310Z,4.93
2023-04-14T19:40:49.398Z,8.60
2023-04-14T19:43:19.354Z,7.30
2023-04-14T19:45:52.124Z,4.82
2023-04-14T19:48:24.330Z,6.28
2023-04-14T19:50:57.046Z,5.88
2023-04-14T19:55:58.353Z,7.05
2023-04-14T19:58:30.697Z,6.57
2023-04-14T20:03:33.099Z,6.40
2023-04-14T20:06:04.474Z,6.15
2023-04-14T20:08:35.552Z,7.10
2023-04-14T20:11:04.976Z,5.45
2023-04-14T20:13:35.647Z,8.25
2023-04-14T20:16:05.923Z,5.72
2023-04-14T20:18:35.328Z,6.53
2023-04-14T20:21:04.934Z,9.23
2023-04-14T20:23:34.661Z,8.80
2023-04-14T20:26:04.276Z,7.15
2023-04-14T20:28:33.960Z,11.80
2023-04-14T20:31:03.405Z,10.13
2023-04-14T20:33:33.170Z,11.00
2023-04-14T20:36:02.894Z,9.07
2023-04-14T20:38:32.305Z,7.75
2023-04-14T20:41:02.132Z,12.98
2023-04-14T20:43:34.416Z,9.65
2023-04-14T20:48:34.198Z,7.35
2023-04-14T20:51:03.724Z,11.82
2023-04-14T20:53:33.114Z,8.23
2023-04-14T20:56:02.465Z,10.68
2023-04-14T20:58:31.832Z,20.45
2023-04-14T21:01:02.690Z,13.15
2023-04-14T21:03:34.683Z,12.73
2023-04-14T21:06:04.433Z,21.23
2023-04-14T21:08:33.837Z,17.98
2023-04-14T21:11:16.769Z,16.40
2023-04-14T21:15:29.116Z,13.63
2023-04-14T21:16:38.512Z,19.02
2023-04-14T21:19:08.320Z,18.25
2023-04-14T21:21:37.846Z,21.25
2023-04-14T21:24:08.419Z,19.13
2023-04-14T21:26:37.773Z,17.75
2023-04-14T21:29:07.176Z,16.48
2023-04-14T21:31:36.887Z,14.07
2023-04-14T21:34:06.856Z,13.48
2023-04-14T21:36:36.464Z,10.75
2023-04-14T21:39:05.811Z,14.80
2023-04-14T21:41:35.912Z,21.45
2023-04-14T21:44:05.328Z,26.05
2023-04-14T21:46:37.883Z,23.55
2023-04-14T21:49:07.251Z,23.35
2023-04-14T21:51:36.778Z,23.05
2023-04-14T21:54:06.339Z,18.50
2023-04-14T21:56:35.879Z,15.63
2023-04-14T21:59:05.269Z,18.48
2023-04-14T22:01:36.492Z,16.58
2023-04-14T22:04:06.584Z,15.88
2023-04-14T22:06:36.707Z,14.98
2023-04-14T22:09:06.442Z,19.70
2023-04-14T22:11:36.180Z,14.43
2023-04-14T22:14:06.057Z,16.92
2023-04-14T22:16:37.363Z,10.43
2023-04-14T22:19:07.312Z,12.93
2023-04-14T22:21:36.703Z,15.75
2023-04-14T22:24:06.181Z,15.43
2023-04-14T22:26:35.621Z,12.98
2023-04-14T22:29:05.173Z,20.90
2023-04-14T22:31:34.575Z,19.80
2023-04-14T22:34:03.963Z,14.43
2023-04-14T22:36:33.368Z,12.55
2023-04-14T22:39:02.910Z,9.52
2023-04-14T22:41:32.409Z,12.05
2023-04-14T22:44:01.904Z,12.77
2023-04-14T22:46:31.512Z,9.95
2023-04-14T22:49:01.257Z,10.15
2023-04-14T22:51:30.883Z,6.45
2023-04-14T22:54:00.251Z,6.75
2023-04-14T22:56:30.285Z,7.75
2023-04-14T22:59:00.421Z,9.95
2023-04-14T23:01:29.923Z,9.88
2023-04-14T23:03:59.586Z,15.55
2023-04-14T23:06:29.067Z,7.35
2023-04-14T23:08:58.490Z,7.82
2023-04-14T23:11:27.934Z,13.90
2023-04-14T23:13:57.393Z,7.13
2023-04-14T23:16:26.821Z,8.35
2023-04-14T23:18:56.408Z,9.85
2023-04-14T23:21:25.857Z,9.35
2023-04-14T23:23:55.275Z,7.95
2023-04-14T23:26:24.776Z,7.88
2023-04-14T23:28:54.130Z,6.85
2023-04-14T23:31:23.619Z,6.90
2023-04-14T23:33:53.152Z,6.25
2023-04-14T23:36:22.887Z,9.18
2023-04-14T23:38:52.767Z,11.85
2023-04-14T23:41:22.288Z,11.15
2023-04-14T23:43:51.765Z,10.10
2023-04-14T23:46:21.210Z,6.38
2023-04-14T23:48:51.597Z,7.40
2023-04-14T23:51:22.990Z,12.57
2023-04-14T23:53:52.741Z,7.88
2023-04-14T23:56:22.543Z,10.98
2023-04-14T23:58:52.246Z,9.38
